createdAt,value
2018-11-11T00:01:45.546Z,35.53
2018-11-11T00:04:14.876Z,35.90
2018-11-11T00:06:44.955Z,36.00
2018-11-11T00:09:14.208Z,36.50
2018-11-11T00:11:43.499Z,34.97
2018-11-11T00:14:12.792Z,34.53
2018-11-11T00:16:42.129Z,35.00
2018-11-11T00:19:11.498Z,36.13
2018-11-11T00:21:40.785Z,35.03
2018-11-11T00:24:09.968Z,38.17
2018-11-11T00:26:39.309Z,33.30
2018-11-11T00:29:08.791Z,35.23
2018-11-11T00:31:38.048Z,35.87
2018-11-11T00:34:07.340Z,33.73
2018-11-11T00:36:36.671Z,34.97
2018-11-11T00:39:08.809Z,37.03
2018-11-11T00:41:38.162Z,32.17
2018-11-11T00:44:07.492Z,37.67
2018-11-11T00:46:36.900Z,35.40
2018-11-11T00:49:06.632Z,35.07
2018-11-11T00:51:35.879Z,35.83
2018-11-11T00:54:05.232Z,40.27
2018-11-11T00:56:34.505Z,35.50
2018-11-11T00:59:03.792Z,35.10
2018-11-11T01:01:33.066Z,38.17
2018-11-11T01:04:02.393Z,37.63
2018-11-11T01:06:31.647Z,38.17
2018-11-11T01:09:00.959Z,37.00
2018-11-11T01:11:30.199Z,38.60
2018-11-11T01:13:59.467Z,38.27
2018-11-11T01:16:28.690Z,37.23
2018-11-11T01:18:58.008Z,38.13
2018-11-11T01:21:27.258Z,39.33
2018-11-11T01:23:56.478Z,44.50
2018-11-11T01:26:25.704Z,40.93
2018-11-11T01:28:54.959Z,42.27
2018-11-11T01:31:24.527Z,38.20
2018-11-11T01:33:53.806Z,39.90
2018-11-11T01:36:23.123Z,37.03
2018-11-11T01:38:52.298Z,36.53
2018-11-11T01:41:21.593Z,39.50
2018-11-11T01:43:50.896Z,39.47
2018-11-11T01:46:20.248Z,36.50
2018-11-11T01:48:49.472Z,38.97
2018-11-11T01:51:18.662Z,40.00
2018-11-11T01:53:47.932Z,39.57
2018-11-11T01:56:17.208Z,37.53
2018-11-11T01:58:46.402Z,39.10
2018-11-11T02:01:15.620Z,40.73
2018-11-11T02:03:44.880Z,37.90
2018-11-11T02:06:14.191Z,43.23
2018-11-11T02:08:43.479Z,40.33
2018-11-11T02:11:12.772Z,45.60
2018-11-11T02:13:42.111Z,42.87
2018-11-11T02:16:11.407Z,45.33
2018-11-11T02:18:40.776Z,45.03
2018-11-11T02:21:10.116Z,45.13
2018-11-11T02:23:39.397Z,44.13
2018-11-11T02:26:08.656Z,40.77
2018-11-11T02:28:37.938Z,43.33
2018-11-11T02:31:07.331Z,46.07
2018-11-11T02:33:36.584Z,46.27
2018-11-11T02:36:05.846Z,47.57
2018-11-11T02:38:35.111Z,42.10
2018-11-11T02:41:04.403Z,48.80
2018-11-11T02:43:33.672Z,43.80
2018-11-11T02:46:02.943Z,42.03
2018-11-11T02:48:32.163Z,39.80
2018-11-11T02:51:01.514Z,44.77
2018-11-11T02:53:30.703Z,44.00
2018-11-11T02:55:59.968Z,42.27
2018-11-11T02:58:29.257Z,42.30
2018-11-11T03:00:58.523Z,46.53
2018-11-11T03:03:27.786Z,45.43
2018-11-11T03:05:57.052Z,46.13
2018-11-11T03:08:26.356Z,44.13
2018-11-11T03:10:55.539Z,48.07
2018-11-11T03:13:24.795Z,47.87
2018-11-11T03:15:54.044Z,43.77
2018-11-11T03:18:23.407Z,46.07
2018-11-11T03:20:52.663Z,47.73
2018-11-11T03:23:21.899Z,45.50
2018-11-11T03:25:51.204Z,47.60
2018-11-11T03:28:20.433Z,54.40
2018-11-11T03:30:49.669Z,51.80
2018-11-11T03:33:19.095Z,49.77
2018-11-11T03:35:48.376Z,53.60
2018-11-11T03:38:17.647Z,50.43
2018-11-11T03:40:46.930Z,51.67
2018-11-11T03:43:16.220Z,49.53
2018-11-11T03:45:45.538Z,54.33
2018-11-11T03:48:14.801Z,53.60
2018-11-11T03:50:44.060Z,54.47
2018-11-11T03:53:13.284Z,56.97
2018-11-11T03:55:42.567Z,56.90
2018-11-11T03:58:11.901Z,53.20
2018-11-11T04:00:41.175Z,58.03
2018-11-11T04:03:10.435Z,53.13
2018-11-11T04:05:39.691Z,55.03
2018-11-11T04:08:09.018Z,64.23
2018-11-11T04:10:38.259Z,53.17
2018-11-11T04:13:07.483Z,55.67
2018-11-11T04:15:36.698Z,57.40
2018-11-11T04:18:06.243Z,56.20
2018-11-11T04:20:35.567Z,55.93
2018-11-11T04:23:04.903Z,57.60
2018-11-11T04:25:34.168Z,58.10
2018-11-11T04:28:03.443Z,60.07
2018-11-11T04:30:32.652Z,51.93
2018-11-11T04:33:02.078Z,61.73
2018-11-11T04:35:31.388Z,59.17
2018-11-11T04:38:00.647Z,56.10
2018-11-11T04:40:29.906Z,62.43
2018-11-11T04:42:59.192Z,60.13
2018-11-11T04:45:28.415Z,60.30
2018-11-11T04:47:57.671Z,59.53
2018-11-11T04:50:26.912Z,63.77
2018-11-11T04:52:56.221Z,60.73
2018-11-11T04:55:25.557Z,64.73
2018-11-11T04:57:54.812Z,60.00
2018-11-11T05:00:24.228Z,67.07
2018-11-11T05:02:53.476Z,55.93
2018-11-11T05:05:22.765Z,58.90
2018-11-11T05:07:52.788Z,59.07
2018-11-11T05:10:22.099Z,54.77
2018-11-11T05:12:51.429Z,57.27
2018-11-11T05:15:20.760Z,55.47
2018-11-11T05:17:49.977Z,57.63
2018-11-11T05:20:19.262Z,55.33
2018-11-11T05:22:48.467Z,54.43
2018-11-11T05:25:17.761Z,54.47
2018-11-11T05:27:48.371Z,48.67
2018-11-11T05:30:17.895Z,51.60
2018-11-11T05:32:47.186Z,48.57
2018-11-11T05:35:16.487Z,45.83
2018-11-11T05:37:45.697Z,47.87
2018-11-11T05:40:15.315Z,53.33
2018-11-11T05:42:45.428Z,50.87
2018-11-11T05:45:15.708Z,46.77
2018-11-11T05:47:45.044Z,52.67
2018-11-11T05:50:15.654Z,49.60
2018-11-11T05:52:46.008Z,46.57
2018-11-11T05:55:15.377Z,48.67
2018-11-11T05:57:44.675Z,46.33
2018-11-11T06:00:15.255Z,49.07
2018-11-11T06:02:44.870Z,43.90
2018-11-11T06:05:14.976Z,49.33
2018-11-11T06:07:44.311Z,48.90
2018-11-11T06:10:14.894Z,45.50
2018-11-11T06:12:44.196Z,47.20
2018-11-11T06:15:14.232Z,50.17
2018-11-11T06:17:43.462Z,46.23
2018-11-11T06:20:14.409Z,51.13
2018-11-11T06:22:43.701Z,47.97
2018-11-11T06:25:13.180Z,44.37
2018-11-11T06:27:42.561Z,52.40
2018-11-11T06:30:12.357Z,44.57
2018-11-11T06:32:41.554Z,44.63
2018-11-11T06:35:10.875Z,47.70
2018-11-11T06:37:40.432Z,42.20
2018-11-11T06:40:11.131Z,44.03
2018-11-11T06:42:40.765Z,44.53
2018-11-11T06:45:12.383Z,45.77
2018-11-11T06:47:42.332Z,49.60
2018-11-11T06:50:12.619Z,52.67
2018-11-11T06:52:42.440Z,54.97
2018-11-11T06:55:12.032Z,48.10
2018-11-11T06:57:41.522Z,49.87
2018-11-11T07:00:13.402Z,46.10
2018-11-11T07:02:52.257Z,43.97
2018-11-11T07:05:21.506Z,48.43
2018-11-11T07:07:50.787Z,47.40
2018-11-11T07:10:20.196Z,51.07
2018-11-11T07:12:49.475Z,54.13
2018-11-11T07:15:18.784Z,47.80
2018-11-11T07:17:48.042Z,45.57
2018-11-11T07:20:17.512Z,48.20
2018-11-11T07:22:46.876Z,46.43
2018-11-11T07:25:16.290Z,43.67
2018-11-11T07:27:45.851Z,40.90
2018-11-11T07:30:15.187Z,42.97
2018-11-11T07:32:44.475Z,39.40
2018-11-11T07:35:13.784Z,37.37
2018-11-11T07:37:43.027Z,40.93
2018-11-11T07:40:15.839Z,37.27
2018-11-11T07:42:45.157Z,39.00
2018-11-11T07:45:14.541Z,36.57
2018-11-11T07:47:43.900Z,35.67
2018-11-11T07:50:13.236Z,32.50
2018-11-11T07:52:42.504Z,34.90
2018-11-11T07:55:13.030Z,36.40
2018-11-11T07:57:42.585Z,33.97
2018-11-11T08:00:13.751Z,38.27
2018-11-11T08:02:43.385Z,31.20
2018-11-11T08:05:12.657Z,31.23
2018-11-11T08:07:42.008Z,32.93
2018-11-11T08:10:22.355Z,31.50
2018-11-11T08:12:51.903Z,32.57
2018-11-11T08:15:21.516Z,32.57
2018-11-11T08:17:50.917Z,30.50
2018-11-11T08:20:20.130Z,32.73
2018-11-11T08:22:49.377Z,30.27
2018-11-11T08:25:18.654Z,30.13
2018-11-11T08:27:47.943Z,28.83
2018-11-11T08:30:17.170Z,32.40
2018-11-11T08:32:46.878Z,30.70
2018-11-11T08:35:16.756Z,30.13
2018-11-11T08:37:46.051Z,28.47
2018-11-11T08:40:15.414Z,28.93
2018-11-11T08:42:45.278Z,31.67
2018-11-11T08:45:15.467Z,30.20
2018-11-11T08:47:45.687Z,28.43
2018-11-11T08:50:15.304Z,30.33
2018-11-11T08:52:45.344Z,29.13
2018-11-11T08:55:15.611Z,30.97
2018-11-11T08:57:45.001Z,26.80
2018-11-11T09:00:15.191Z,28.00
2018-11-11T09:02:44.451Z,31.37
2018-11-11T09:05:13.708Z,29.10
2018-11-11T09:07:42.953Z,26.43
2018-11-11T09:10:13.047Z,25.60
2018-11-11T09:12:42.284Z,24.30
2018-11-11T09:15:15.339Z,22.90
2018-11-11T09:17:44.839Z,20.60
2018-11-11T09:20:15.472Z,20.33
2018-11-11T09:22:44.711Z,19.33
2018-11-11T09:25:14.089Z,20.47
2018-11-11T09:27:43.774Z,18.27
2018-11-11T09:30:14.655Z,17.43
2018-11-11T09:32:44.080Z,20.10
2018-11-11T09:35:13.581Z,16.03
2018-11-11T09:37:43.238Z,16.60
2018-11-11T09:40:13.398Z,17.70
2018-11-11T09:42:43.012Z,17.93
2018-11-11T09:45:13.961Z,16.50
2018-11-11T09:47:43.521Z,16.03
2018-11-11T09:50:14.165Z,17.43
2018-11-11T09:52:43.437Z,15.23
2018-11-11T09:55:13.603Z,15.80
2018-11-11T09:57:42.890Z,15.13
2018-11-11T10:00:16.724Z,17.60
2018-11-11T10:02:52.703Z,15.23
2018-11-11T10:05:31.800Z,16.20
2018-11-11T10:08:07.579Z,15.17
2018-11-11T10:10:43.558Z,15.13
2018-11-11T10:13:18.920Z,15.00
2018-11-11T10:15:52.651Z,15.80
2018-11-11T10:18:59.011Z,14.40
2018-11-11T10:21:33.547Z,14.50
2018-11-11T10:24:07.631Z,14.50
2018-11-11T10:26:41.207Z,15.43
2018-11-11T10:29:23.599Z,13.93
2018-11-11T10:32:00.602Z,15.10
2018-11-11T10:34:35.762Z,13.67
2018-11-11T10:37:12.520Z,12.07
2018-11-11T10:39:46.784Z,12.60
2018-11-11T10:42:21.645Z,13.57
2018-11-11T10:44:54.953Z,11.67
2018-11-11T10:47:27.925Z,11.23
2018-11-11T10:50:00.323Z,11.33
2018-11-11T10:52:29.574Z,10.87
2018-11-11T10:54:59.251Z,11.07
2018-11-11T10:57:28.772Z,11.30
2018-11-11T10:59:58.121Z,11.10
2018-11-11T11:02:28.774Z,10.20
2018-11-11T11:05:03.207Z,10.23
2018-11-11T11:07:32.502Z,9.77
2018-11-11T11:10:01.931Z,13.10
2018-11-11T11:12:31.641Z,10.37
2018-11-11T11:15:00.626Z,11.43
2018-11-11T11:17:29.871Z,11.13
2018-11-11T11:19:59.877Z,11.17
2018-11-11T11:22:28.810Z,12.93
2018-11-11T11:24:57.920Z,10.73
2018-11-11T11:27:27.133Z,10.70
2018-11-11T11:29:56.121Z,12.17
2018-11-11T11:32:25.350Z,10.47
2018-11-11T11:34:54.317Z,10.30
2018-11-11T11:37:23.290Z,10.50
2018-11-11T11:39:52.811Z,10.63
2018-11-11T11:42:21.770Z,10.77
2018-11-11T11:44:50.750Z,11.00
2018-11-11T11:47:19.713Z,10.77
2018-11-11T11:49:48.708Z,10.37
2018-11-11T11:52:17.791Z,9.93
2018-11-11T11:54:46.743Z,10.20
2018-11-11T11:57:15.738Z,10.17
2018-11-11T11:59:45.110Z,10.07
2018-11-11T12:02:14.166Z,12.07
2018-11-11T12:04:43.399Z,10.00
2018-11-11T12:07:12.370Z,9.63
2018-11-11T12:09:41.358Z,9.80
2018-11-11T12:12:10.581Z,10.00
2018-11-11T12:14:39.808Z,9.47
2018-11-11T12:17:10.154Z,9.10
2018-11-11T12:19:39.072Z,9.77
2018-11-11T12:22:08.363Z,9.33
2018-11-11T12:24:38.605Z,9.60
2018-11-11T12:27:07.579Z,8.83
2018-11-11T12:29:36.522Z,8.67
2018-11-11T12:32:05.522Z,8.67
2018-11-11T12:34:34.512Z,10.60
2018-11-11T12:37:03.529Z,9.67
2018-11-11T12:39:32.868Z,9.00
2018-11-11T12:42:08.039Z,9.80
2018-11-11T12:44:37.371Z,10.00
2018-11-11T12:47:07.075Z,8.97
2018-11-11T12:49:36.552Z,8.47
2018-11-11T12:52:05.989Z,7.80
2018-11-11T12:54:35.536Z,9.93
2018-11-11T12:57:04.763Z,7.53
2018-11-11T12:59:33.992Z,7.83
2018-11-11T13:02:03.351Z,8.40
2018-11-11T13:04:32.665Z,7.47
2018-11-11T13:07:01.982Z,6.40
2018-11-11T13:09:31.203Z,5.37
2018-11-11T13:12:00.558Z,4.33
2018-11-11T13:14:30.571Z,5.20
2018-11-11T13:16:59.771Z,4.13
2018-11-11T13:19:28.979Z,4.23
2018-11-11T13:21:58.302Z,3.47
2018-11-11T13:24:27.843Z,4.97
2018-11-11T13:26:57.114Z,3.63
2018-11-11T13:29:31.624Z,4.20
2018-11-11T13:32:00.916Z,4.67
2018-11-11T13:34:30.625Z,3.43
2018-11-11T13:37:00.000Z,4.30
2018-11-11T13:39:29.308Z,4.40
2018-11-11T13:41:58.683Z,5.90
2018-11-11T13:44:28.120Z,6.47
2018-11-11T13:46:57.623Z,6.80
2018-11-11T13:49:27.216Z,6.60
2018-11-11T13:51:56.388Z,7.07
2018-11-11T13:54:25.668Z,8.00
2018-11-11T13:56:54.844Z,7.07
2018-11-11T13:59:24.084Z,6.30
2018-11-11T14:01:53.360Z,6.57
2018-11-11T14:04:22.619Z,7.30
2018-11-11T14:06:51.939Z,10.50
2018-11-11T14:09:22.691Z,9.27
2018-11-11T14:11:51.983Z,8.90
2018-11-11T14:14:21.245Z,8.40
2018-11-11T14:16:50.436Z,8.73
2018-11-11T14:19:20.084Z,12.57
2018-11-11T14:21:48.955Z,10.67
2018-11-11T14:24:18.189Z,9.43
2018-11-11T14:26:47.534Z,9.97
2018-11-11T14:29:16.814Z,9.87
2018-11-11T14:31:46.340Z,9.97
2018-11-11T14:34:16.645Z,10.70
2018-11-11T14:36:46.786Z,11.07
2018-11-11T14:39:16.164Z,12.33
2018-11-11T14:41:45.383Z,12.23
2018-11-11T14:44:14.598Z,11.37
2018-11-11T14:46:44.099Z,10.77
2018-11-11T14:49:13.413Z,11.97
2018-11-11T14:51:42.781Z,11.73
2018-11-11T14:54:12.060Z,15.20
2018-11-11T14:56:41.363Z,11.63
2018-11-11T14:59:10.784Z,11.77
2018-11-11T15:01:40.119Z,13.10
2018-11-11T15:04:09.387Z,13.00
2018-11-11T15:06:39.654Z,12.47
2018-11-11T15:09:10.942Z,13.10
2018-11-11T15:11:40.639Z,12.57
2018-11-11T15:14:10.252Z,12.30
2018-11-11T15:16:39.500Z,11.80
2018-11-11T15:19:08.844Z,12.80
2018-11-11T15:21:38.073Z,13.67
2018-11-11T15:24:07.352Z,13.73
2018-11-11T15:26:36.540Z,13.03
2018-11-11T15:29:05.972Z,12.60
2018-11-11T15:31:35.260Z,13.07
2018-11-11T15:34:04.569Z,12.20
2018-11-11T15:36:34.034Z,12.50
2018-11-11T15:39:04.222Z,13.07
2018-11-11T15:41:33.544Z,11.93
2018-11-11T15:44:02.831Z,13.20
2018-11-11T15:46:32.089Z,14.63
2018-11-11T15:49:01.316Z,11.73
2018-11-11T15:51:30.630Z,12.87
2018-11-11T15:53:59.872Z,14.00
2018-11-11T15:56:29.159Z,12.47
2018-11-11T15:58:59.360Z,13.13
2018-11-11T16:01:28.507Z,12.80
2018-11-11T16:03:57.749Z,13.17
2018-11-11T16:06:27.367Z,12.00
2018-11-11T16:08:56.669Z,12.37
2018-11-11T16:11:25.930Z,11.13
2018-11-11T16:13:55.249Z,13.33
2018-11-11T16:16:25.108Z,14.00
2018-11-11T16:18:54.507Z,11.20
2018-11-11T16:21:24.263Z,10.80
2018-11-11T16:23:53.520Z,13.27
2018-11-11T16:26:22.797Z,13.57
2018-11-11T16:28:52.035Z,11.33
2018-11-11T16:31:38.932Z,12.20
2018-11-11T16:34:08.939Z,11.97
2018-11-11T16:36:38.646Z,10.93
2018-11-11T16:39:10.894Z,11.70
2018-11-11T16:41:40.315Z,12.03
2018-11-11T16:44:09.599Z,12.73
2018-11-11T16:46:57.208Z,12.77
2018-11-11T16:49:26.536Z,11.00
2018-11-11T16:51:56.131Z,11.40
2018-11-11T16:54:25.625Z,11.27
2018-11-11T16:56:54.858Z,12.43
2018-11-11T16:59:24.645Z,10.93
2018-11-11T17:01:54.015Z,12.00
2018-11-11T17:04:23.617Z,12.40
2018-11-11T17:07:08.698Z,12.03
2018-11-11T17:09:38.719Z,12.43
2018-11-11T17:12:08.169Z,13.20
2018-11-11T17:14:38.022Z,11.67
2018-11-11T17:17:08.184Z,13.00
2018-11-11T17:19:39.270Z,13.57
2018-11-11T17:22:08.543Z,14.07
2018-11-11T17:24:37.706Z,13.73
2018-11-11T17:27:07.050Z,14.10
2018-11-11T17:29:36.273Z,13.63
2018-11-11T17:32:05.581Z,14.30
2018-11-11T17:34:34.704Z,13.00
2018-11-11T17:37:03.771Z,14.70
2018-11-11T17:39:33.026Z,15.20
2018-11-11T17:42:02.020Z,14.93
2018-11-11T17:44:31.380Z,14.83
2018-11-11T17:47:00.413Z,15.33
2018-11-11T17:49:29.682Z,14.73
2018-11-11T17:52:01.767Z,15.17
2018-11-11T17:54:31.034Z,14.53
2018-11-11T17:57:00.345Z,14.83
2018-11-11T17:59:30.029Z,14.47
2018-11-11T18:01:59.256Z,14.80
2018-11-11T18:04:28.843Z,15.07
2018-11-11T18:06:58.386Z,15.27
2018-11-11T18:09:29.353Z,14.73
2018-11-11T18:11:59.448Z,14.03
2018-11-11T18:14:29.063Z,15.67
2018-11-11T18:16:58.156Z,15.27
2018-11-11T18:19:27.704Z,14.50
2018-11-11T18:21:57.799Z,15.03
2018-11-11T18:24:27.034Z,15.33
2018-11-11T18:27:02.030Z,16.03
2018-11-11T18:29:30.983Z,15.83
2018-11-11T18:32:00.006Z,13.70
2018-11-11T18:34:29.008Z,16.30
2018-11-11T18:36:57.973Z,15.00
2018-11-11T18:39:27.218Z,15.63
2018-11-11T18:41:56.413Z,14.93
2018-11-11T18:44:25.684Z,16.37
2018-11-11T18:46:54.872Z,17.47
2018-11-11T18:49:24.156Z,16.30
2018-11-11T18:51:53.382Z,15.73
2018-11-11T18:54:22.592Z,15.40
2018-11-11T18:56:52.897Z,15.67
2018-11-11T18:59:28.915Z,15.03
2018-11-11T19:01:58.743Z,15.23
2018-11-11T19:04:27.995Z,16.43
2018-11-11T19:06:57.176Z,16.83
2018-11-11T19:09:27.645Z,16.50
2018-11-11T19:11:58.771Z,14.57
2018-11-11T19:17:34.471Z,15.33
2018-11-11T19:20:03.828Z,16.60
2018-11-11T19:22:33.096Z,15.57
2018-11-11T19:25:03.342Z,17.33
2018-11-11T19:27:32.663Z,17.43
2018-11-11T19:30:01.840Z,17.43
2018-11-11T19:32:31.624Z,17.50
2018-11-11T19:35:00.822Z,16.47
2018-11-11T19:37:39.562Z,18.30
2018-11-11T19:40:13.697Z,17.70
2018-11-11T19:42:43.664Z,17.63
2018-11-11T19:45:14.631Z,20.07
2018-11-11T19:47:44.709Z,17.33
2018-11-11T19:50:15.519Z,18.07
2018-11-11T19:52:48.411Z,17.90
2018-11-11T19:55:18.848Z,17.27
2018-11-11T20:03:37.200Z,18.57
2018-11-11T20:06:07.300Z,20.70
2018-11-11T20:08:36.676Z,16.73
2018-11-11T20:11:07.700Z,18.73
2018-11-11T20:13:36.956Z,15.50
2018-11-11T20:16:06.361Z,16.73
2018-11-11T20:18:35.585Z,16.73
2018-11-11T20:21:04.900Z,15.90
2018-11-11T20:23:34.073Z,17.60
2018-11-11T20:26:23.219Z,17.03
2018-11-11T20:28:52.540Z,17.43
2018-11-11T20:31:21.885Z,16.90
2018-11-11T20:33:51.171Z,17.53
2018-11-11T20:36:20.909Z,19.10
2018-11-11T20:38:50.228Z,19.07
2018-11-11T20:41:19.765Z,18.23
2018-11-11T20:43:49.307Z,16.33
2018-11-11T20:46:18.607Z,16.23
2018-11-11T20:48:47.862Z,16.60
2018-11-11T20:51:17.034Z,17.33
2018-11-11T20:53:46.323Z,16.83
2018-11-11T20:56:15.583Z,17.43
2018-11-11T20:58:44.907Z,16.73
2018-11-11T21:01:14.193Z,19.67
2018-11-11T21:03:43.505Z,19.43
2018-11-11T21:06:12.811Z,15.57
2018-11-11T21:08:42.323Z,17.27
2018-11-11T21:11:11.801Z,17.40
2018-11-11T21:13:41.165Z,16.87
2018-11-11T21:16:10.475Z,16.30
2018-11-11T21:18:39.912Z,17.43
2018-11-11T21:21:09.152Z,16.70
2018-11-11T21:23:38.406Z,15.90
2018-11-11T21:26:07.596Z,17.70
2018-11-11T21:28:36.840Z,15.93
2018-11-11T21:31:09.967Z,16.60
2018-11-11T21:33:39.791Z,16.50
2018-11-11T21:36:09.076Z,18.07
2018-11-11T21:38:38.372Z,17.37
2018-11-11T21:41:08.112Z,14.83
2018-11-11T21:43:37.336Z,15.90
2018-11-11T21:46:07.009Z,15.87
2018-11-11T21:48:36.315Z,14.57
2018-11-11T21:51:06.271Z,15.30
2018-11-11T21:53:36.980Z,16.33
2018-11-11T21:56:06.838Z,17.37
2018-11-11T21:58:36.138Z,17.50
2018-11-11T22:01:05.964Z,13.63
2018-11-11T22:03:35.255Z,13.17
2018-11-11T22:06:04.467Z,12.93
2018-11-11T22:08:33.855Z,13.83
2018-11-11T22:11:04.326Z,12.37
2018-11-11T22:13:33.719Z,12.67
2018-11-11T22:16:03.020Z,13.90
2018-11-11T22:18:32.243Z,13.10
2018-11-11T22:21:01.452Z,13.37
2018-11-11T22:23:30.804Z,13.23
2018-11-11T22:26:00.674Z,15.13
2018-11-11T22:28:29.878Z,14.00
2018-11-11T22:30:59.401Z,18.67
2018-11-11T22:33:28.650Z,14.40
2018-11-11T22:35:57.966Z,15.10
2018-11-11T22:38:27.316Z,15.77
2018-11-11T22:40:56.564Z,16.03
2018-11-11T22:43:25.921Z,14.43
2018-11-11T22:45:55.148Z,14.93
2018-11-11T22:48:24.444Z,15.43
2018-11-11T22:50:53.747Z,16.87
2018-11-11T22:53:22.927Z,16.50
2018-11-11T22:55:52.143Z,14.53
2018-11-11T22:58:21.319Z,16.13
2018-11-11T23:00:55.628Z,17.63
2018-11-11T23:03:24.912Z,15.70
2018-11-11T23:05:54.707Z,14.63
2018-11-11T23:08:24.031Z,17.53
2018-11-11T23:10:53.277Z,15.97
2018-11-11T23:13:22.437Z,16.50
2018-11-11T23:15:51.693Z,13.40
2018-11-11T23:18:20.965Z,15.90
2018-11-11T23:20:50.185Z,14.33
2018-11-11T23:23:19.507Z,15.00
2018-11-11T23:25:48.742Z,14.27
2018-11-11T23:28:17.974Z,15.63
2018-11-11T23:30:47.231Z,15.97
2018-11-11T23:33:17.875Z,16.90
2018-11-11T23:35:47.104Z,16.37
2018-11-11T23:38:16.300Z,19.37
2018-11-11T23:40:45.594Z,19.33
2018-11-11T23:43:14.860Z,17.23
2018-11-11T23:45:44.210Z,19.47
2018-11-11T23:48:13.504Z,20.47
2018-11-11T23:50:42.728Z,18.67
2018-11-11T23:53:11.918Z,19.03
2018-11-11T23:55:41.209Z,17.13
2018-11-11T23:58:10.339Z,17.73
